sensor_id;sensor_type;location;lat;lon;timestamp;P1;durP1;ratioP1;P2;durP2;ratioP2
29384;SDS011;16367;48.736;9.218;2023-05-07T00:01:46;5.72;;;2.70;;
29384;SDS011;16367;48.736;9.218;2023-05-07T00:03:49;5.03;;;2.67;;
29384;SDS011;16367;48.736;9.218;2023-05-07T00:05:52;7.60;;;2.40;;
29384;SDS011;16367;48.736;9.218;2023-05-07T00:07:55;4.57;;;2.20;;
29384;SDS011;16367;48.736;9.218;2023-05-07T00:10:00;6.30;;;2.28;;
29384;SDS011;16367;48.736;9.218;2023-05-07T00:12:02;5.30;;;2.35;;
29384;SDS011;16367;48.736;9.218;2023-05-07T00:14:07;4.60;;;2.10;;
29384;SDS011;16367;48.736;9.218;2023-05-07T00:16:09;5.45;;;2.45;;
29384;SDS011;16367;48.736;9.218;2023-05-07T00:18:12;6.05;;;2.22;;
29384;SDS011;16367;48.736;9.218;2023-05-07T00:20:15;6.35;;;2.28;;
29384;SDS011;16367;48.736;9.218;2023-05-07T00:22:18;4.88;;;2.20;;
29384;SDS011;16367;48.736;9.218;2023-05-07T00:24:22;6.22;;;2.30;;
29384;SDS011;16367;48.736;9.218;2023-05-07T00:26:25;5.60;;;2.22;;
29384;SDS011;16367;48.736;9.218;2023-05-07T00:28:28;5.63;;;2.22;;
29384;SDS011;16367;48.736;9.218;2023-05-07T00:30:32;4.55;;;2.30;;
29384;SDS011;16367;48.736;9.218;2023-05-07T00:32:35;6.03;;;2.40;;
29384;SDS011;16367;48.736;9.218;2023-05-07T00:34:38;7.30;;;2.25;;
29384;SDS011;16367;48.736;9.218;2023-05-07T00:36:41;4.45;;;1.98;;
29384;SDS011;16367;48.736;9.218;2023-05-07T00:38:44;4.20;;;1.80;;
29384;SDS011;16367;48.736;9.218;2023-05-07T00:40:47;4.32;;;1.98;;
29384;SDS011;16367;48.736;9.218;2023-05-07T00:42:49;4.28;;;2.10;;
29384;SDS011;16367;48.736;9.218;2023-05-07T00:44:58;5.53;;;1.83;;
29384;SDS011;16367;48.736;9.218;2023-05-07T00:47:03;4.22;;;2.15;;
29384;SDS011;16367;48.736;9.218;2023-05-07T00:49:07;5.45;;;2.00;;
29384;SDS011;16367;48.736;9.218;2023-05-07T00:51:10;4.50;;;2.05;;
29384;SDS011;16367;48.736;9.218;2023-05-07T00:53:13;4.22;;;1.95;;
29384;SDS011;16367;48.736;9.218;2023-05-07T00:55:16;4.75;;;1.92;;
29384;SDS011;16367;48.736;9.218;2023-05-07T00:57:20;5.80;;;1.95;;
29384;SDS011;16367;48.736;9.218;2023-05-07T00:59:24;3.85;;;1.85;;
29384;SDS011;16367;48.736;9.218;2023-05-07T01:01:27;4.50;;;2.00;;
29384;SDS011;16367;48.736;9.218;2023-05-07T01:03:32;5.13;;;2.10;;
29384;SDS011;16367;48.736;9.218;2023-05-07T01:05:35;4.22;;;1.90;;
29384;SDS011;16367;48.736;9.218;2023-05-07T01:07:39;4.82;;;2.00;;
29384;SDS011;16367;48.736;9.218;2023-05-07T01:09:44;5.38;;;2.30;;
29384;SDS011;16367;48.736;9.218;2023-05-07T01:11:47;5.22;;;2.20;;
29384;SDS011;16367;48.736;9.218;2023-05-07T01:13:51;5.22;;;2.00;;
29384;SDS011;16367;48.736;9.218;2023-05-07T01:15:55;5.97;;;2.15;;
29384;SDS011;16367;48.736;9.218;2023-05-07T01:17:58;4.22;;;1.80;;
29384;SDS011;16367;48.736;9.218;2023-05-07T01:20:03;4.88;;;2.00;;
29384;SDS011;16367;48.736;9.218;2023-05-07T01:22:09;5.60;;;1.98;;
29384;SDS011;16367;48.736;9.218;2023-05-07T01:24:15;4.82;;;2.00;;
29384;SDS011;16367;48.736;9.218;2023-05-07T01:26:18;4.28;;;2.17;;
29384;SDS011;16367;48.736;9.218;2023-05-07T01:28:21;5.50;;;2.28;;
29384;SDS011;16367;48.736;9.218;2023-05-07T01:30:25;5.13;;;2.25;;
29384;SDS011;16367;48.736;9.218;2023-05-07T01:32:29;5.75;;;2.50;;
29384;SDS011;16367;48.736;9.218;2023-05-07T01:34:36;5.72;;;2.35;;
29384;SDS011;16367;48.736;9.218;2023-05-07T01:36:39;5.22;;;2.22;;
29384;SDS011;16367;48.736;9.218;2023-05-07T01:38:44;4.72;;;2.08;;
29384;SDS011;16367;48.736;9.218;2023-05-07T01:40:49;5.13;;;1.95;;
29384;SDS011;16367;48.736;9.218;2023-05-07T01:42:52;5.63;;;1.95;;
29384;SDS011;16367;48.736;9.218;2023-05-07T01:44:56;4.45;;;2.00;;
29384;SDS011;16367;48.736;9.218;2023-05-07T01:46:59;5.97;;;2.15;;
29384;SDS011;16367;48.736;9.218;2023-05-07T01:49:04;4.28;;;1.83;;
29384;SDS011;16367;48.736;9.218;2023-05-07T01:51:07;4.63;;;2.00;;
29384;SDS011;16367;48.736;9.218;2023-05-07T01:53:11;3.90;;;1.65;;
29384;SDS011;16367;48.736;9.218;2023-05-07T01:55:13;5.07;;;2.00;;
29384;SDS011;16367;48.736;9.218;2023-05-07T01:57:18;4.55;;;2.20;;
29384;SDS011;16367;48.736;9.218;2023-05-07T01:59:20;5.47;;;2.20;;
29384;SDS011;16367;48.736;9.218;2023-05-07T02:01:23;4.32;;;1.92;;
29384;SDS011;16367;48.736;9.218;2023-05-07T02:03:26;4.60;;;1.73;;
29384;SDS011;16367;48.736;9.218;2023-05-07T02:05:30;5.20;;;1.80;;
29384;SDS011;16367;48.736;9.218;2023-05-07T02:07:32;10.10;;;2.00;;
29384;SDS011;16367;48.736;9.218;2023-05-07T02:09:35;4.22;;;1.80;;
29384;SDS011;16367;48.736;9.218;2023-05-07T02:11:38;6.05;;;2.00;;
29384;SDS011;16367;48.736;9.218;2023-05-07T02:13:42;7.28;;;2.30;;
29384;SDS011;16367;48.736;9.218;2023-05-07T02:15:45;4.30;;;1.73;;
29384;SDS011;16367;48.736;9.218;2023-05-07T02:17:58;4.70;;;2.10;;
29384;SDS011;16367;48.736;9.218;2023-05-07T02:20:02;3.83;;;1.65;;
29384;SDS011;16367;48.736;9.218;2023-05-07T02:22:06;4.65;;;2.10;;
29384;SDS011;16367;48.736;9.218;2023-05-07T02:24:09;4.00;;;1.92;;
29384;SDS011;16367;48.736;9.218;2023-05-07T02:26:12;4.40;;;1.92;;
29384;SDS011;16367;48.736;9.218;2023-05-07T02:28:14;4.22;;;1.92;;
29384;SDS011;16367;48.736;9.218;2023-05-07T02:30:19;5.05;;;1.80;;
29384;SDS011;16367;48.736;9.218;2023-05-07T02:32:22;5.20;;;2.08;;
29384;SDS011;16367;48.736;9.218;2023-05-07T02:34:26;4.47;;;1.95;;
29384;SDS011;16367;48.736;9.218;2023-05-07T02:36:29;4.35;;;1.83;;
29384;SDS011;16367;48.736;9.218;2023-05-07T02:38:31;5.15;;;1.83;;
29384;SDS011;16367;48.736;9.218;2023-05-07T02:40:34;4.45;;;1.83;;
29384;SDS011;16367;48.736;9.218;2023-05-07T02:42:40;6.10;;;2.20;;
29384;SDS011;16367;48.736;9.218;2023-05-07T02:44:42;7.13;;;2.58;;
29384;SDS011;16367;48.736;9.218;2023-05-07T02:46:47;6.18;;;2.33;;
29384;SDS011;16367;48.736;9.218;2023-05-07T02:48:49;5.40;;;2.10;;
29384;SDS011;16367;48.736;9.218;2023-05-07T02:50:52;5.22;;;2.13;;
29384;SDS011;16367;48.736;9.218;2023-05-07T02:52:55;5.63;;;2.42;;
29384;SDS011;16367;48.736;9.218;2023-05-07T02:54:58;5.28;;;2.30;;
29384;SDS011;16367;48.736;9.218;2023-05-07T02:57:01;5.70;;;2.72;;
29384;SDS011;16367;48.736;9.218;2023-05-07T02:59:04;5.55;;;2.17;;
29384;SDS011;16367;48.736;9.218;2023-05-07T03:01:07;5.57;;;2.00;;
29384;SDS011;16367;48.736;9.218;2023-05-07T03:03:12;5.10;;;2.13;;
29384;SDS011;16367;48.736;9.218;2023-05-07T03:05:15;4.90;;;2.17;;
29384;SDS011;16367;48.736;9.218;2023-05-07T03:07:18;5.28;;;2.10;;
29384;SDS011;16367;48.736;9.218;2023-05-07T03:09:21;5.20;;;2.15;;
29384;SDS011;16367;48.736;9.218;2023-05-07T03:11:24;5.55;;;2.33;;
29384;SDS011;16367;48.736;9.218;2023-05-07T03:13:27;5.22;;;2.35;;
29384;SDS011;16367;48.736;9.218;2023-05-07T03:15:29;4.72;;;2.22;;
29384;SDS011;16367;48.736;9.218;2023-05-07T03:17:32;4.22;;;2.00;;
29384;SDS011;16367;48.736;9.218;2023-05-07T03:19:37;5.13;;;2.65;;
29384;SDS011;16367;48.736;9.218;2023-05-07T03:21:40;6.45;;;2.50;;
29384;SDS011;16367;48.736;9.218;2023-05-07T03:23:43;6.72;;;2.25;;
29384;SDS011;16367;48.736;9.218;2023-05-07T03:25:46;6.03;;;2.60;;
29384;SDS011;16367;48.736;9.218;2023-05-07T03:27:48;5.03;;;2.15;;
29384;SDS011;16367;48.736;9.218;2023-05-07T03:29:51;4.47;;;2.08;;
29384;SDS011;16367;48.736;9.218;2023-05-07T03:31:54;5.53;;;2.35;;
29384;SDS011;16367;48.736;9.218;2023-05-07T03:33:57;5.15;;;2.70;;
29384;SDS011;16367;48.736;9.218;2023-05-07T03:36:01;5.10;;;1.88;;
29384;SDS011;16367;48.736;9.218;2023-05-07T03:38:04;5.40;;;2.28;;
29384;SDS011;16367;48.736;9.218;2023-05-07T03:40:08;6.30;;;2.17;;
29384;SDS011;16367;48.736;9.218;2023-05-07T03:42:14;5.47;;;2.97;;
29384;SDS011;16367;48.736;9.218;2023-05-07T03:44:17;5.10;;;2.30;;
29384;SDS011;16367;48.736;9.218;2023-05-07T03:46:20;8.60;;;2.60;;
29384;SDS011;16367;48.736;9.218;2023-05-07T03:48:22;5.22;;;2.40;;
29384;SDS011;16367;48.736;9.218;2023-05-07T03:50:26;4.95;;;2.45;;
29384;SDS011;16367;48.736;9.218;2023-05-07T03:52:30;5.30;;;2.58;;
29384;SDS011;16367;48.736;9.218;2023-05-07T03:54:33;4.82;;;2.15;;
29384;SDS011;16367;48.736;9.218;2023-05-07T03:56:36;6.15;;;2.17;;
29384;SDS011;16367;48.736;9.218;2023-05-07T03:58:39;5.10;;;2.40;;
29384;SDS011;16367;48.736;9.218;2023-05-07T04:03:57;5.80;;;2.33;;
29384;SDS011;16367;48.736;9.218;2023-05-07T04:06:01;5.35;;;2.45;;
29384;SDS011;16367;48.736;9.218;2023-05-07T04:08:06;6.53;;;3.30;;
29384;SDS011;16367;48.736;9.218;2023-05-07T04:10:09;7.05;;;2.65;;
29384;SDS011;16367;48.736;9.218;2023-05-07T04:12:12;4.65;;;2.28;;
29384;SDS011;16367;48.736;9.218;2023-05-07T04:14:15;5.93;;;2.30;;
29384;SDS011;16367;48.736;9.218;2023-05-07T04:16:18;6.03;;;2.58;;
29384;SDS011;16367;48.736;9.218;2023-05-07T04:18:21;5.57;;;2.80;;
29384;SDS011;16367;48.736;9.218;2023-05-07T04:20:24;6.55;;;3.03;;
29384;SDS011;16367;48.736;9.218;2023-05-07T04:22:26;8.55;;;4.00;;
29384;SDS011;16367;48.736;9.218;2023-05-07T04:24:32;7.63;;;3.58;;
29384;SDS011;16367;48.736;9.218;2023-05-07T04:26:35;6.85;;;2.83;;
29384;SDS011;16367;48.736;9.218;2023-05-07T04:28:38;6.20;;;2.58;;
29384;SDS011;16367;48.736;9.218;2023-05-07T04:30:41;6.18;;;2.63;;
29384;SDS011;16367;48.736;9.218;2023-05-07T04:32:44;6.07;;;2.72;;
29384;SDS011;16367;48.736;9.218;2023-05-07T04:34:47;5.45;;;2.78;;
29384;SDS011;16367;48.736;9.218;2023-05-07T04:36:50;4.93;;;2.45;;
29384;SDS011;16367;48.736;9.218;2023-05-07T04:38:52;8.60;;;2.53;;
29384;SDS011;16367;48.736;9.218;2023-05-07T04:40:57;6.13;;;2.85;;
29384;SDS011;16367;48.736;9.218;2023-05-07T04:43:00;5.60;;;2.55;;
29384;SDS011;16367;48.736;9.218;2023-05-07T04:45:02;6.22;;;2.67;;
29384;SDS011;16367;48.736;9.218;2023-05-07T04:47:06;6.80;;;3.33;;
29384;SDS011;16367;48.736;9.218;2023-05-07T04:49:08;5.68;;;2.80;;
29384;SDS011;16367;48.736;9.218;2023-05-07T04:51:16;5.47;;;2.90;;
29384;SDS011;16367;48.736;9.218;2023-05-07T04:53:20;5.88;;;2.42;;
29384;SDS011;16367;48.736;9.218;2023-05-07T04:55:23;7.28;;;3.03;;
29384;SDS011;16367;48.736;9.218;2023-05-07T04:57:28;5.45;;;2.72;;
29384;SDS011;16367;48.736;9.218;2023-05-07T04:59:30;7.32;;;3.47;;
29384;SDS011;16367;48.736;9.218;2023-05-07T05:01:34;7.35;;;3.75;;
29384;SDS011;16367;48.736;9.218;2023-05-07T05:03:37;6.43;;;3.53;;
29384;SDS011;16367;48.736;9.218;2023-05-07T05:05:40;6.75;;;3.50;;
29384;SDS011;16367;48.736;9.218;2023-05-07T05:07:43;6.15;;;3.10;;
29384;SDS011;16367;48.736;9.218;2023-05-07T05:09:46;7.82;;;3.53;;
29384;SDS011;16367;48.736;9.218;2023-05-07T05:11:49;7.65;;;3.42;;
29384;SDS011;16367;48.736;9.218;2023-05-07T05:13:53;7.50;;;3.63;;
29384;SDS011;16367;48.736;9.218;2023-05-07T05:15:56;8.15;;;3.35;;
29384;SDS011;16367;48.736;9.218;2023-05-07T05:17:58;7.07;;;3.40;;
29384;SDS011;16367;48.736;9.218;2023-05-07T05:20:01;5.97;;;3.05;;
29384;SDS011;16367;48.736;9.218;2023-05-07T05:22:04;5.60;;;2.80;;
29384;SDS011;16367;48.736;9.218;2023-05-07T05:24:07;5.90;;;3.00;;
29384;SDS011;16367;48.736;9.218;2023-05-07T05:26:10;5.45;;;2.72;;
29384;SDS011;16367;48.736;9.218;2023-05-07T05:28:13;5.57;;;2.80;;
29384;SDS011;16367;48.736;9.218;2023-05-07T05:30:17;5.70;;;3.05;;
29384;SDS011;16367;48.736;9.218;2023-05-07T05:32:22;6.55;;;3.00;;
29384;SDS011;16367;48.736;9.218;2023-05-07T05:34:24;6.05;;;3.05;;
29384;SDS011;16367;48.736;9.218;2023-05-07T05:36:27;5.45;;;2.78;;
29384;SDS011;16367;48.736;9.218;2023-05-07T05:38:30;5.50;;;2.70;;
29384;SDS011;16367;48.736;9.218;2023-05-07T05:40:33;5.78;;;2.70;;
29384;SDS011;16367;48.736;9.218;2023-05-07T05:42:35;6.13;;;2.50;;
29384;SDS011;16367;48.736;9.218;2023-05-07T05:44:38;5.05;;;2.40;;
29384;SDS011;16367;48.736;9.218;2023-05-07T05:46:42;4.80;;;2.50;;
29384;SDS011;16367;48.736;9.218;2023-05-07T05:48:45;5.32;;;2.50;;
29384;SDS011;16367;48.736;9.218;2023-05-07T05:50:48;6.13;;;2.83;;
29384;SDS011;16367;48.736;9.218;2023-05-07T05:52:50;5.72;;;3.10;;
29384;SDS011;16367;48.736;9.218;2023-05-07T05:54:53;4.97;;;2.60;;
29384;SDS011;16367;48.736;9.218;2023-05-07T05:56:56;5.70;;;2.63;;
29384;SDS011;16367;48.736;9.218;2023-05-07T05:58:59;6.13;;;3.10;;
29384;SDS011;16367;48.736;9.218;2023-05-07T06:01:02;5.22;;;2.58;;
29384;SDS011;16367;48.736;9.218;2023-05-07T06:03:07;8.73;;;3.10;;
29384;SDS011;16367;48.736;9.218;2023-05-07T06:05:14;6.13;;;3.03;;
29384;SDS011;16367;48.736;9.218;2023-05-07T06:07:17;6.18;;;2.90;;
29384;SDS011;16367;48.736;9.218;2023-05-07T06:09:20;5.95;;;2.67;;
29384;SDS011;16367;48.736;9.218;2023-05-07T06:11:23;6.28;;;2.40;;
29384;SDS011;16367;48.736;9.218;2023-05-07T06:13:26;6.80;;;2.47;;
29384;SDS011;16367;48.736;9.218;2023-05-07T06:15:29;5.32;;;2.80;;
29384;SDS011;16367;48.736;9.218;2023-05-07T06:17:32;5.93;;;2.38;;
29384;SDS011;16367;48.736;9.218;2023-05-07T06:19:37;5.20;;;2.40;;
29384;SDS011;16367;48.736;9.218;2023-05-07T06:21:40;8.63;;;2.58;;
29384;SDS011;16367;48.736;9.218;2023-05-07T06:23:42;5.22;;;2.63;;
29384;SDS011;16367;48.736;9.218;2023-05-07T06:25:47;5.60;;;2.83;;
29384;SDS011;16367;48.736;9.218;2023-05-07T06:27:51;5.55;;;2.65;;
29384;SDS011;16367;48.736;9.218;2023-05-07T06:29:53;5.40;;;2.42;;
29384;SDS011;16367;48.736;9.218;2023-05-07T06:31:56;7.13;;;2.83;;
29384;SDS011;16367;48.736;9.218;2023-05-07T06:34:08;5.28;;;2.53;;
29384;SDS011;16367;48.736;9.218;2023-05-07T06:36:16;6.28;;;3.00;;
29384;SDS011;16367;48.736;9.218;2023-05-07T06:38:19;4.72;;;2.70;;
29384;SDS011;16367;48.736;9.218;2023-05-07T06:40:22;5.10;;;2.40;;
29384;SDS011;16367;48.736;9.218;2023-05-07T06:42:24;4.97;;;2.65;;
29384;SDS011;16367;48.736;9.218;2023-05-07T06:44:27;5.68;;;2.75;;
29384;SDS011;16367;48.736;9.218;2023-05-07T06:46:30;5.20;;;2.88;;
29384;SDS011;16367;48.736;9.218;2023-05-07T06:48:33;5.15;;;2.60;;
29384;SDS011;16367;48.736;9.218;2023-05-07T06:50:36;6.13;;;3.03;;
29384;SDS011;16367;48.736;9.218;2023-05-07T06:52:40;8.35;;;3.40;;
29384;SDS011;16367;48.736;9.218;2023-05-07T06:54:43;5.65;;;3.25;;
29384;SDS011;16367;48.736;9.218;2023-05-07T06:56:45;6.38;;;2.78;;
29384;SDS011;16367;48.736;9.218;2023-05-07T06:58:48;5.05;;;2.72;;
29384;SDS011;16367;48.736;9.218;2023-05-07T07:00:51;5.97;;;3.08;;
29384;SDS011;16367;48.736;9.218;2023-05-07T07:02:54;4.88;;;2.75;;
29384;SDS011;16367;48.736;9.218;2023-05-07T07:04:57;6.03;;;3.20;;
29384;SDS011;16367;48.736;9.218;2023-05-07T07:07:00;5.72;;;3.17;;
29384;SDS011;16367;48.736;9.218;2023-05-07T07:09:04;5.40;;;2.83;;
29384;SDS011;16367;48.736;9.218;2023-05-07T07:11:07;6.00;;;3.28;;
29384;SDS011;16367;48.736;9.218;2023-05-07T07:13:11;5.97;;;2.80;;
29384;SDS011;16367;48.736;9.218;2023-05-07T07:15:14;5.57;;;2.97;;
29384;SDS011;16367;48.736;9.218;2023-05-07T07:17:17;6.10;;;3.05;;
29384;SDS011;16367;48.736;9.218;2023-05-07T07:19:20;6.72;;;3.00;;
29384;SDS011;16367;48.736;9.218;2023-05-07T07:21:22;6.90;;;2.97;;
29384;SDS011;16367;48.736;9.218;2023-05-07T07:23:25;6.00;;;2.75;;
29384;SDS011;16367;48.736;9.218;2023-05-07T07:25:29;5.85;;;2.90;;
29384;SDS011;16367;48.736;9.218;2023-05-07T07:27:32;6.82;;;3.03;;
29384;SDS011;16367;48.736;9.218;2023-05-07T07:29:35;6.05;;;2.90;;
29384;SDS011;16367;48.736;9.218;2023-05-07T07:31:38;6.10;;;3.00;;
29384;SDS011;16367;48.736;9.218;2023-05-07T07:33:41;6.28;;;2.97;;
29384;SDS011;16367;48.736;9.218;2023-05-07T07:35:44;5.32;;;2.80;;
29384;SDS011;16367;48.736;9.218;2023-05-07T07:37:48;5.45;;;3.25;;
29384;SDS011;16367;48.736;9.218;2023-05-07T07:39:51;4.93;;;2.70;;
29384;SDS011;16367;48.736;9.218;2023-05-07T07:41:56;6.55;;;3.03;;
29384;SDS011;16367;48.736;9.218;2023-05-07T07:43:58;6.75;;;3.25;;
29384;SDS011;16367;48.736;9.218;2023-05-07T07:46:01;5.70;;;3.00;;
29384;SDS011;16367;48.736;9.218;2023-05-07T07:48:04;5.13;;;2.90;;
29384;SDS011;16367;48.736;9.218;2023-05-07T07:50:08;5.85;;;3.08;;
29384;SDS011;16367;48.736;9.218;2023-05-07T07:52:15;5.97;;;3.40;;
29384;SDS011;16367;48.736;9.218;2023-05-07T07:54:18;5.20;;;2.88;;
29384;SDS011;16367;48.736;9.218;2023-05-07T07:56:21;5.97;;;2.70;;
29384;SDS011;16367;48.736;9.218;2023-05-07T07:58:25;6.53;;;2.70;;
29384;SDS011;16367;48.736;9.218;2023-05-07T08:00:28;6.00;;;3.05;;
29384;SDS011;16367;48.736;9.218;2023-05-07T08:02:30;6.40;;;3.13;;
29384;SDS011;16367;48.736;9.218;2023-05-07T08:04:33;6.40;;;2.90;;
29384;SDS011;16367;48.736;9.218;2023-05-07T08:06:38;5.97;;;2.92;;
29384;SDS011;16367;48.736;9.218;2023-05-07T08:08:41;4.78;;;2.83;;
29384;SDS011;16367;48.736;9.218;2023-05-07T08:10:44;6.82;;;3.00;;
29384;SDS011;16367;48.736;9.218;2023-05-07T08:12:47;7.15;;;3.25;;
29384;SDS011;16367;48.736;9.218;2023-05-07T08:14:51;6.05;;;3.08;;
29384;SDS011;16367;48.736;9.218;2023-05-07T08:16:54;6.32;;;3.35;;
29384;SDS011;16367;48.736;9.218;2023-05-07T08:18:57;5.28;;;2.80;;
29384;SDS011;16367;48.736;9.218;2023-05-07T08:21:00;4.78;;;2.70;;
29384;SDS011;16367;48.736;9.218;2023-05-07T08:23:03;6.40;;;2.72;;
29384;SDS011;16367;48.736;9.218;2023-05-07T08:25:07;7.47;;;3.35;;
29384;SDS011;16367;48.736;9.218;2023-05-07T08:27:11;5.40;;;2.60;;
29384;SDS011;16367;48.736;9.218;2023-05-07T08:29:14;5.13;;;3.03;;
29384;SDS011;16367;48.736;9.218;2023-05-07T08:31:18;6.03;;;3.08;;
29384;SDS011;16367;48.736;9.218;2023-05-07T08:33:21;5.43;;;2.97;;
29384;SDS011;16367;48.736;9.218;2023-05-07T08:35:24;6.15;;;3.03;;
29384;SDS011;16367;48.736;9.218;2023-05-07T08:37:28;6.65;;;2.83;;
29384;SDS011;16367;48.736;9.218;2023-05-07T08:39:31;5.43;;;3.08;;
29384;SDS011;16367;48.736;9.218;2023-05-07T08:41:34;6.53;;;3.15;;
29384;SDS011;16367;48.736;9.218;2023-05-07T08:43:37;6.18;;;2.97;;
29384;SDS011;16367;48.736;9.218;2023-05-07T08:45:43;6.45;;;2.70;;
29384;SDS011;16367;48.736;9.218;2023-05-07T08:47:50;6.13;;;2.42;;
29384;SDS011;16367;48.736;9.218;2023-05-07T08:49:55;6.82;;;3.38;;
29384;SDS011;16367;48.736;9.218;2023-05-07T08:51:58;5.60;;;2.72;;
29384;SDS011;16367;48.736;9.218;2023-05-07T08:54:01;6.28;;;3.03;;
29384;SDS011;16367;48.736;9.218;2023-05-07T08:56:05;5.85;;;3.10;;
29384;SDS011;16367;48.736;9.218;2023-05-07T08:58:09;4.30;;;2.50;;
29384;SDS011;16367;48.736;9.218;2023-05-07T09:00:12;5.00;;;3.00;;
29384;SDS011;16367;48.736;9.218;2023-05-07T09:02:16;6.00;;;2.65;;
29384;SDS011;16367;48.736;9.218;2023-05-07T09:04:21;4.85;;;2.40;;
29384;SDS011;16367;48.736;9.218;2023-05-07T09:06:24;5.72;;;2.50;;
29384;SDS011;16367;48.736;9.218;2023-05-07T09:08:27;4.50;;;2.55;;
29384;SDS011;16367;48.736;9.218;2023-05-07T09:10:31;7.10;;;2.67;;
29384;SDS011;16367;48.736;9.218;2023-05-07T09:12:35;5.32;;;2.47;;
29384;SDS011;16367;48.736;9.218;2023-05-07T09:14:39;4.30;;;2.25;;
29384;SDS011;16367;48.736;9.218;2023-05-07T09:16:42;4.68;;;2.08;;
29384;SDS011;16367;48.736;9.218;2023-05-07T09:18:45;7.55;;;2.30;;
29384;SDS011;16367;48.736;9.218;2023-05-07T09:20:50;4.60;;;2.60;;
29384;SDS011;16367;48.736;9.218;2023-05-07T09:22:55;4.55;;;2.58;;
29384;SDS011;16367;48.736;9.218;2023-05-07T09:24:58;5.90;;;2.78;;
29384;SDS011;16367;48.736;9.218;2023-05-07T09:27:01;4.43;;;2.50;;
29384;SDS011;16367;48.736;9.218;2023-05-07T09:29:04;4.97;;;2.13;;
29384;SDS011;16367;48.736;9.218;2023-05-07T09:31:07;6.88;;;2.50;;
29384;SDS011;16367;48.736;9.218;2023-05-07T09:33:10;6.20;;;2.92;;
29384;SDS011;16367;48.736;9.218;2023-05-07T09:35:14;4.60;;;2.20;;
29384;SDS011;16367;48.736;9.218;2023-05-07T09:37:19;4.65;;;2.28;;
29384;SDS011;16367;48.736;9.218;2023-05-07T09:39:22;4.35;;;2.13;;
29384;SDS011;16367;48.736;9.218;2023-05-07T09:41:25;4.72;;;2.58;;
29384;SDS011;16367;48.736;9.218;2023-05-07T09:43:31;4.50;;;2.28;;
29384;SDS011;16367;48.736;9.218;2023-05-07T09:45:35;4.85;;;2.60;;
29384;SDS011;16367;48.736;9.218;2023-05-07T09:47:39;5.13;;;2.65;;
29384;SDS011;16367;48.736;9.218;2023-05-07T09:49:46;5.10;;;2.22;;
29384;SDS011;16367;48.736;9.218;2023-05-07T09:51:51;6.05;;;2.30;;
29384;SDS011;16367;48.736;9.218;2023-05-07T09:53:56;4.60;;;2.78;;
29384;SDS011;16367;48.736;9.218;2023-05-07T09:56:02;4.50;;;2.20;;
29384;SDS011;16367;48.736;9.218;2023-05-07T09:58:05;5.28;;;2.40;;
29384;SDS011;16367;48.736;9.218;2023-05-07T10:00:09;4.90;;;2.45;;
29384;SDS011;16367;48.736;9.218;2023-05-07T10:02:13;5.22;;;2.20;;
29384;SDS011;16367;48.736;9.218;2023-05-07T10:04:17;5.55;;;2.42;;
29384;SDS011;16367;48.736;9.218;2023-05-07T10:06:22;5.18;;;2.60;;
29384;SDS011;16367;48.736;9.218;2023-05-07T10:08:26;4.63;;;2.30;;
29384;SDS011;16367;48.736;9.218;2023-05-07T10:10:33;4.70;;;2.05;;
29384;SDS011;16367;48.736;9.218;2023-05-07T10:12:36;4.95;;;2.30;;
29384;SDS011;16367;48.736;9.218;2023-05-07T10:14:41;5.60;;;2.50;;
29384;SDS011;16367;48.736;9.218;2023-05-07T10:16:44;5.00;;;1.85;;
29384;SDS011;16367;48.736;9.218;2023-05-07T10:18:49;4.55;;;2.20;;
29384;SDS011;16367;48.736;9.218;2023-05-07T10:20:54;4.60;;;2.05;;
29384;SDS011;16367;48.736;9.218;2023-05-07T10:23:01;4.68;;;2.40;;
29384;SDS011;16367;48.736;9.218;2023-05-07T10:25:06;5.53;;;2.45;;
29384;SDS011;16367;48.736;9.218;2023-05-07T10:27:17;4.50;;;2.05;;
29384;SDS011;16367;48.736;9.218;2023-05-07T10:29:25;5.72;;;2.15;;
29384;SDS011;16367;48.736;9.218;2023-05-07T10:31:39;4.72;;;2.40;;
29384;SDS011;16367;48.736;9.218;2023-05-07T10:33:51;5.07;;;2.22;;
29384;SDS011;16367;48.736;9.218;2023-05-07T10:35:57;4.57;;;2.40;;
29384;SDS011;16367;48.736;9.218;2023-05-07T10:38:02;5.40;;;2.22;;
29384;SDS011;16367;48.736;9.218;2023-05-07T10:40:06;4.78;;;2.45;;
29384;SDS011;16367;48.736;9.218;2023-05-07T10:42:11;4.30;;;2.05;;
29384;SDS011;16367;48.736;9.218;2023-05-07T10:44:25;6.38;;;1.83;;
29384;SDS011;16367;48.736;9.218;2023-05-07T10:46:29;4.82;;;2.22;;
29384;SDS011;16367;48.736;9.218;2023-05-07T10:48:49;6.32;;;1.98;;
29384;SDS011;16367;48.736;9.218;2023-05-07T10:51:18;4.85;;;2.10;;
29384;SDS011;16367;48.736;9.218;2023-05-07T10:53:23;5.13;;;2.20;;
29384;SDS011;16367;48.736;9.218;2023-05-07T10:55:27;4.50;;;2.08;;
29384;SDS011;16367;48.736;9.218;2023-05-07T10:57:34;5.50;;;2.17;;
29384;SDS011;16367;48.736;9.218;2023-05-07T10:59:39;4.07;;;2.00;;
29384;SDS011;16367;48.736;9.218;2023-05-07T11:01:52;8.20;;;2.13;;
29384;SDS011;16367;48.736;9.218;2023-05-07T11:04:12;5.10;;;2.22;;
29384;SDS011;16367;48.736;9.218;2023-05-07T11:06:16;4.03;;;1.90;;
29384;SDS011;16367;48.736;9.218;2023-05-07T11:08:18;5.15;;;2.10;;
29384;SDS011;16367;48.736;9.218;2023-05-07T11:10:21;7.72;;;2.33;;
29384;SDS011;16367;48.736;9.218;2023-05-07T11:14:51;4.40;;;1.92;;
29384;SDS011;16367;48.736;9.218;2023-05-07T11:17:00;4.30;;;1.90;;
29384;SDS011;16367;48.736;9.218;2023-05-07T11:19:04;4.30;;;2.05;;
29384;SDS011;16367;48.736;9.218;2023-05-07T11:21:07;7.15;;;2.17;;
29384;SDS011;16367;48.736;9.218;2023-05-07T11:23:17;5.95;;;1.83;;
29384;SDS011;16367;48.736;9.218;2023-05-07T11:26:09;4.15;;;1.75;;
29384;SDS011;16367;48.736;9.218;2023-05-07T11:28:13;4.53;;;1.92;;
29384;SDS011;16367;48.736;9.218;2023-05-07T11:30:18;5.90;;;1.90;;
29384;SDS011;16367;48.736;9.218;2023-05-07T11:32:22;4.30;;;1.83;;
29384;SDS011;16367;48.736;9.218;2023-05-07T11:34:26;5.38;;;2.08;;
29384;SDS011;16367;48.736;9.218;2023-05-07T11:36:30;4.05;;;1.73;;
29384;SDS011;16367;48.736;9.218;2023-05-07T11:38:34;4.38;;;1.83;;
29384;SDS011;16367;48.736;9.218;2023-05-07T11:40:48;6.03;;;2.10;;
29384;SDS011;16367;48.736;9.218;2023-05-07T11:42:51;6.57;;;2.00;;
29384;SDS011;16367;48.736;9.218;2023-05-07T11:44:54;5.47;;;2.10;;
29384;SDS011;16367;48.736;9.218;2023-05-07T11:46:59;5.78;;;2.28;;
29384;SDS011;16367;48.736;9.218;2023-05-07T11:49:03;4.28;;;2.00;;
29384;SDS011;16367;48.736;9.218;2023-05-07T11:51:06;4.72;;;2.13;;
29384;SDS011;16367;48.736;9.218;2023-05-07T11:53:10;4.93;;;2.25;;
29384;SDS011;16367;48.736;9.218;2023-05-07T11:55:14;4.50;;;1.98;;
29384;SDS011;16367;48.736;9.218;2023-05-07T11:59:23;6.18;;;2.10;;
29384;SDS011;16367;48.736;9.218;2023-05-07T12:01:26;3.85;;;1.92;;
29384;SDS011;16367;48.736;9.218;2023-05-07T12:03:30;5.03;;;1.90;;
29384;SDS011;16367;48.736;9.218;2023-05-07T12:05:36;5.35;;;1.88;;
29384;SDS011;16367;48.736;9.218;2023-05-07T12:09:45;4.60;;;1.90;;
29384;SDS011;16367;48.736;9.218;2023-05-07T12:11:49;4.93;;;1.88;;
29384;SDS011;16367;48.736;9.218;2023-05-07T12:13:54;4.78;;;2.17;;
29384;SDS011;16367;48.736;9.218;2023-05-07T12:16:00;4.47;;;1.92;;
29384;SDS011;16367;48.736;9.218;2023-05-07T12:18:04;4.45;;;1.90;;
29384;SDS011;16367;48.736;9.218;2023-05-07T12:20:09;5.45;;;1.90;;
29384;SDS011;16367;48.736;9.218;2023-05-07T12:22:13;5.72;;;2.30;;
29384;SDS011;16367;48.736;9.218;2023-05-07T12:24:16;4.22;;;2.05;;
29384;SDS011;16367;48.736;9.218;2023-05-07T12:26:22;4.63;;;1.70;;
29384;SDS011;16367;48.736;9.218;2023-05-07T12:28:26;3.92;;;1.58;;
29384;SDS011;16367;48.736;9.218;2023-05-07T12:30:29;4.18;;;1.80;;
29384;SDS011;16367;48.736;9.218;2023-05-07T12:32:31;5.25;;;2.00;;
29384;SDS011;16367;48.736;9.218;2023-05-07T12:34:37;5.13;;;1.70;;
29384;SDS011;16367;48.736;9.218;2023-05-07T12:36:47;4.97;;;1.60;;
29384;SDS011;16367;48.736;9.218;2023-05-07T12:38:51;3.58;;;1.50;;